Time;durP1;ratioP1;P1;durP2;ratioP2;P2;SDS_P1;SDS_P2;PMS_P1;PMS_P2;Temp;Humidity;BMP_temperature;BMP_pressure;BME280_temperature;BME280_humidity;BME280_pressure;Samples;Min_cycle;Max_cycle;Signal;HPM_P1;HPM_P2
2023/04/21 00:00:19;;;;;;;8.38;4.13;;;;;;;;;;5034628;28;20140;-72
2023/04/21 00:02:48;;;;;;;12.75;5.22;;;;;;;;;;5023495;28;20056;-73
2023/04/21 00:05:14;;;;;;;10.02;4.95;;;;;;;;;;4997118;28;20053;-75
2023/04/21 00:07:41;;;;;;;11.35;4.95;;;;;;;;;;5017082;28;20077;-73
2023/04/21 00:10:09;;;;;;;9.07;4.50;;;;;;;;;;4977836;28;20140;-73
2023/04/21 00:12:37;;;;;;;9.38;4.70;;;;;;;;;;4991939;28;20053;-73
2023/04/21 00:15:05;;;;;;;9.73;4.97;;;;;;;;;;5020451;28;20118;-73
2023/04/21 00:17:32;;;;;;;9.77;4.93;;;;;;;;;;5002073;28;20049;-73
2023/04/21 00:20:00;;;;;;;10.45;4.63;;;;;;;;;;5037031;28;20064;-73
2023/04/21 00:22:26;;;;;;;12.10;5.33;;;;;;;;;;5032650;28;20058;-74
2023/04/21 00:24:55;;;;;;;9.55;4.50;;;;;;;;;;5031380;28;20053;-74
2023/04/21 00:27:22;;;;;;;;;;;;;;;;;;5025473;28;20055;-73
2023/04/21 00:29:50;;;;;;;10.55;4.30;;;;;;;;;;4997879;28;19932;-73
2023/04/21 00:32:19;;;;;;;11.65;5.22;;;;;;;;;;4997984;28;20053;-72
2023/04/21 00:34:46;;;;;;;11.05;4.60;;;;;;;;;;4993656;28;20057;-74
2023/04/21 00:37:13;;;;;;;11.13;5.28;;;;;;;;;;4994181;28;20063;-74
2023/04/21 00:39:39;;;;;;;14.23;5.32;;;;;;;;;;5010186;28;20061;-73
2023/04/21 00:42:06;;;;;;;11.00;5.00;;;;;;;;;;5013531;28;20099;-74
2023/04/21 00:44:33;;;;;;;11.85;5.30;;;;;;;;;;5018187;28;20065;-72
2023/04/21 00:47:02;;;;;;;12.07;5.20;;;;;;;;;;5013956;28;20056;-75
2023/04/21 00:49:29;;;;;;;11.25;5.40;;;;;;;;;;5015285;28;20080;-73
2023/04/21 00:51:55;;;;;;;15.00;5.57;;;;;;;;;;5022444;28;20056;-72
2023/04/21 00:54:24;;;;;;;13.23;5.38;;;;;;;;;;5016045;28;20060;-72
2023/04/21 00:56:50;;;;;;;14.88;5.72;;;;;;;;;;5011464;28;20053;-72
2023/04/21 00:59:17;;;;;;;12.98;5.10;;;;;;;;;;4991000;28;20054;-72
2023/04/21 01:01:44;;;;;;;11.77;4.90;;;;;;;;;;5018051;28;20080;-73
2023/04/21 01:04:12;;;;;;;12.02;5.18;;;;;;;;;;5004394;28;20045;-75
2023/04/21 01:06:40;;;;;;;13.10;5.53;;;;;;;;;;4993517;28;20155;-73
2023/04/21 01:09:07;;;;;;;11.60;5.30;;;;;;;;;;4994160;28;20077;-75
2023/04/21 01:11:34;;;;;;;13.73;5.65;;;;;;;;;;5017215;28;20060;-74
2023/04/21 01:14:01;;;;;;;12.95;5.63;;;;;;;;;;5016958;28;20055;-75
2023/04/21 01:16:28;;;;;;;14.95;5.97;;;;;;;;;;5012177;28;20045;-75
2023/04/21 01:18:56;;;;;;;15.52;5.65;;;;;;;;;;5009279;28;20063;-73
2023/04/21 01:21:24;;;;;;;14.40;5.80;;;;;;;;;;5008771;28;20201;-74
2023/04/21 01:23:52;;;;;;;11.15;5.57;;;;;;;;;;5001344;28;20057;-75
2023/04/21 01:26:20;;;;;;;13.55;5.97;;;;;;;;;;5014776;28;20053;-73
2023/04/21 01:28:47;;;;;;;12.82;5.90;;;;;;;;;;5003716;28;20061;-75
2023/04/21 01:31:14;;;;;;;11.63;5.60;;;;;;;;;;5012230;28;20309;-72
2023/04/21 01:33:41;;;;;;;12.45;5.70;;;;;;;;;;5017635;28;20065;-74
2023/04/21 01:36:08;;;;;;;13.35;6.00;;;;;;;;;;5006078;28;20085;-75
2023/04/21 01:38:37;;;;;;;13.13;6.15;;;;;;;;;;5016696;28;20062;-73
2023/04/21 01:41:06;;;;;;;11.30;5.35;;;;;;;;;;5017283;28;20148;-72
2023/04/21 01:43:32;;;;;;;12.60;5.70;;;;;;;;;;5015963;28;20057;-72
2023/04/21 01:45:59;;;;;;;15.95;6.05;;;;;;;;;;5013699;28;20132;-72
2023/04/21 01:48:26;;;;;;;12.38;5.65;;;;;;;;;;5011737;28;20140;-73
2023/04/21 01:50:56;;;;;;;14.80;6.30;;;;;;;;;;5013093;28;20057;-73
2023/04/21 01:53:23;;;;;;;13.05;5.60;;;;;;;;;;5011792;28;20174;-75
2023/04/21 01:55:50;;;;;;;15.38;6.10;;;;;;;;;;5021232;28;20061;-74
2023/04/21 01:58:18;;;;;;;14.57;6.40;;;;;;;;;;5010156;28;20477;-72
2023/04/21 02:00:45;;;;;;;14.35;6.53;;;;;;;;;;5015030;28;20049;-75
2023/04/21 02:03:12;;;;;;;14.00;6.18;;;;;;;;;;5011085;28;20053;-73
2023/04/21 02:05:39;;;;;;;13.50;6.30;;;;;;;;;;5003038;28;20057;-76
2023/04/21 02:08:06;;;;;;;14.40;6.03;;;;;;;;;;5017491;28;20191;-74
2023/04/21 02:10:32;;;;;;;15.30;6.68;;;;;;;;;;5008033;28;20099;-75
2023/04/21 02:12:59;;;;;;;15.40;7.15;;;;;;;;;;5013154;28;20045;-73
2023/04/21 02:15:28;;;;;;;15.68;6.78;;;;;;;;;;5001411;28;20063;-74
2023/04/21 02:17:54;;;;;;;14.10;5.78;;;;;;;;;;5013196;28;20058;-75
2023/04/21 02:20:21;;;;;;;13.82;6.63;;;;;;;;;;5001642;28;20122;-73
2023/04/21 02:22:48;;;;;;;13.75;6.55;;;;;;;;;;5012745;28;20130;-74
2023/04/21 02:25:14;;;;;;;13.45;6.75;;;;;;;;;;5009723;28;20061;-73
2023/04/21 02:27:41;;;;;;;14.85;6.63;;;;;;;;;;5010799;28;20037;-72
2023/04/21 02:30:14;;;;;;;16.15;6.53;;;;;;;;;;5011294;28;20057;-74
2023/04/21 02:32:42;;;;;;;12.98;6.32;;;;;;;;;;5012725;28;20076;-75
2023/04/21 02:35:09;;;;;;;14.98;6.50;;;;;;;;;;4996024;28;20061;-75
2023/04/21 02:37:36;;;;;;;16.20;6.88;;;;;;;;;;5011911;28;20061;-74
2023/04/21 02:40:04;;;;;;;15.07;6.50;;;;;;;;;;5015150;28;20057;-73
2023/04/21 02:42:32;;;;;;;16.30;7.17;;;;;;;;;;5009284;28;20358;-73
2023/04/21 02:44:59;;;;;;;13.30;6.30;;;;;;;;;;5011971;28;20146;-74
2023/04/21 02:47:26;;;;;;;13.82;6.93;;;;;;;;;;5016511;28;20053;-73
2023/04/21 02:49:54;;;;;;;19.23;7.00;;;;;;;;;;5012168;28;20127;-73
2023/04/21 02:52:21;;;;;;;15.40;6.32;;;;;;;;;;5007806;28;20049;-73
2023/04/21 02:54:48;;;;;;;15.05;7.35;;;;;;;;;;5003597;28;20049;-73
2023/04/21 02:57:14;;;;;;;18.40;7.50;;;;;;;;;;5015282;28;20053;-72
2023/04/21 02:59:41;;;;;;;15.15;7.13;;;;;;;;;;5009912;28;20076;-74
2023/04/21 03:02:10;;;;;;;15.43;6.78;;;;;;;;;;5008221;28;20048;-74
2023/04/21 03:04:38;;;;;;;14.05;6.50;;;;;;;;;;5001371;28;20171;-73
2023/04/21 03:07:11;;;;;;;14.88;6.70;;;;;;;;;;5020040;28;20135;-73
2023/04/21 03:09:38;;;;;;;14.93;6.90;;;;;;;;;;5011831;28;20060;-73
2023/04/21 03:12:04;;;;;;;16.88;7.28;;;;;;;;;;5015403;28;20095;-73
2023/04/21 03:14:31;;;;;;;14.18;6.60;;;;;;;;;;5000070;28;20053;-73
2023/04/21 03:16:58;;;;;;;15.40;7.32;;;;;;;;;;4998948;28;20189;-72
2023/04/21 03:19:24;;;;;;;16.80;7.10;;;;;;;;;;5012277;28;20129;-73
2023/04/21 03:21:51;;;;;;;13.88;6.80;;;;;;;;;;5013087;28;20061;-71
2023/04/21 03:24:23;;;;;;;16.30;6.85;;;;;;;;;;4997974;28;20060;-73
2023/04/21 03:26:51;;;;;;;14.65;6.75;;;;;;;;;;5013890;28;20053;-73
2023/04/21 03:29:18;;;;;;;;;;;;;;;;;;5005137;28;20129;-73
2023/04/21 03:31:45;;;;;;;14.80;6.20;;;;;;;;;;4994654;28;19952;-73
2023/04/21 03:34:13;;;;;;;17.02;7.30;;;;;;;;;;5012360;28;20057;-74
2023/04/21 03:36:40;;;;;;;16.10;6.72;;;;;;;;;;5007649;28;20053;-74
2023/04/21 03:39:07;;;;;;;16.02;6.95;;;;;;;;;;5014579;28;20057;-73
2023/04/21 03:41:35;;;;;;;13.95;6.50;;;;;;;;;;5011286;28;20129;-73
2023/04/21 03:44:02;;;;;;;12.70;6.15;;;;;;;;;;4979046;28;20081;-72
2023/04/21 03:46:29;;;;;;;14.05;6.55;;;;;;;;;;4992246;28;20123;-73
2023/04/21 03:48:56;;;;;;;16.67;6.95;;;;;;;;;;5007183;28;20135;-72
2023/04/21 03:51:22;;;;;;;16.10;7.05;;;;;;;;;;5009915;28;20276;-72
2023/04/21 03:53:49;;;;;;;13.88;6.82;;;;;;;;;;5010203;28;20049;-73
2023/04/21 03:56:16;;;;;;;15.75;7.07;;;;;;;;;;5007565;28;20085;-73
2023/04/21 03:58:47;;;;;;;12.90;6.10;;;;;;;;;;5011700;28;20053;-72
2023/04/21 04:01:13;;;;;;;15.40;7.18;;;;;;;;;;5009562;28;20056;-74
2023/04/21 04:03:40;;;;;;;17.95;6.85;;;;;;;;;;5010126;28;20067;-73
2023/04/21 04:06:07;;;;;;;14.88;6.88;;;;;;;;;;5009666;28;20183;-73
2023/04/21 04:08:34;;;;;;;14.90;6.65;;;;;;;;;;5007732;28;20354;-73
2023/04/21 04:11:01;;;;;;;16.23;6.63;;;;;;;;;;5007709;28;20053;-73
2023/04/21 04:13:29;;;;;;;15.30;7.15;;;;;;;;;;5010062;28;20056;-72
2023/04/21 04:15:57;;;;;;;14.50;7.13;;;;;;;;;;5019706;28;20053;-73
2023/04/21 04:18:24;;;;;;;13.60;7.00;;;;;;;;;;4999921;28;20487;-72
2023/04/21 04:20:54;;;;;;;15.25;6.85;;;;;;;;;;5004584;28;20068;-73
2023/04/21 04:23:23;;;;;;;16.58;6.95;;;;;;;;;;5006490;28;20062;-72
2023/04/21 04:25:50;;;;;;;;;;;;;;;;;;5008914;28;20172;-73
2023/04/21 04:28:17;;;;;;;13.68;6.80;;;;;;;;;;4990956;28;20032;-73
2023/04/21 04:30:44;;;;;;;14.30;7.25;;;;;;;;;;5014120;28;20060;-72
2023/04/21 04:33:12;;;;;;;14.30;6.78;;;;;;;;;;5009603;28;20054;-73
2023/04/21 04:35:41;;;;;;;17.75;7.28;;;;;;;;;;5010502;28;20057;-72
2023/04/21 04:38:07;;;;;;;;;;;;;;;;;;5009424;28;20054;-72
2023/04/21 04:40:34;;;;;;;14.38;6.43;;;;;;;;;;5009864;28;19932;-73
2023/04/21 04:43:01;;;;;;;15.93;6.88;;;;;;;;;;5010591;28;20061;-72
2023/04/21 04:45:31;;;;;;;16.88;7.40;;;;;;;;;;4999654;28;20137;-72
2023/04/21 04:48:06;;;;;;;16.15;8.02;;;;;;;;;;5016623;28;20056;-72
2023/04/21 04:50:36;;;;;;;13.50;6.63;;;;;;;;;;5008213;28;20061;-72
2023/04/21 04:53:03;;;;;;;16.85;7.70;;;;;;;;;;5001326;28;20061;-73
2023/04/21 04:55:30;;;;;;;16.10;7.57;;;;;;;;;;5010512;28;20053;-72
2023/04/21 04:57:56;;;;;;;17.58;8.00;;;;;;;;;;5008391;28;20049;-72
2023/04/21 05:00:23;;;;;;;18.13;8.07;;;;;;;;;;4998123;28;20053;-73
2023/04/21 05:02:50;;;;;;;16.95;7.88;;;;;;;;;;5009296;28;20133;-73
2023/04/21 05:05:20;;;;;;;16.52;7.28;;;;;;;;;;5006291;28;20049;-73
2023/04/21 05:07:50;;;;;;;16.83;8.23;;;;;;;;;;5008885;28;20058;-73
2023/04/21 05:10:20;;;;;;;13.93;7.38;;;;;;;;;;4992149;28;20140;-73
2023/04/21 05:12:47;;;;;;;16.92;7.72;;;;;;;;;;5015959;28;20053;-72
2023/04/21 05:15:14;;;;;;;16.05;8.20;;;;;;;;;;4992145;28;20049;-74
2023/04/21 05:17:41;;;;;;;16.63;8.07;;;;;;;;;;5011876;28;20076;-74
2023/04/21 05:20:11;;;;;;;17.73;8.30;;;;;;;;;;5004720;28;20057;-71
2023/04/21 05:22:40;;;;;;;16.65;8.07;;;;;;;;;;5004438;28;20170;-74
2023/04/21 05:25:13;;;;;;;19.35;8.38;;;;;;;;;;4992667;28;20049;-74
2023/04/21 05:27:40;;;;;;;18.95;8.48;;;;;;;;;;4999072;28;20136;-74
2023/04/21 05:30:25;;;;;;;17.17;8.02;;;;;;;;;;5042267;28;20081;-74
2023/04/21 05:32:52;;;;;;;19.45;9.63;;;;;;;;;;5010919;28;20136;-73
2023/04/21 05:35:19;;;;;;;16.60;7.97;;;;;;;;;;5002665;28;20109;-71
2023/04/21 05:37:46;;;;;;;19.88;9.30;;;;;;;;;;5012521;28;20072;-72
2023/04/21 05:40:17;;;;;;;18.10;8.75;;;;;;;;;;5010625;28;20088;-74
2023/04/21 05:42:44;;;;;;;17.23;8.60;;;;;;;;;;5008433;28;20045;-72
2023/04/21 05:45:10;;;;;;;19.23;8.27;;;;;;;;;;5005830;28;20065;-72
2023/04/21 05:47:40;;;;;;;18.77;8.63;;;;;;;;;;5014120;28;20061;-73
2023/04/21 05:50:10;;;;;;;23.38;9.90;;;;;;;;;;5010495;28;20081;-72
2023/04/21 05:52:37;;;;;;;17.30;8.63;;;;;;;;;;5000191;28;20049;-72
2023/04/21 05:55:04;;;;;;;19.95;9.27;;;;;;;;;;5021416;28;20076;-71
2023/04/21 05:57:32;;;;;;;18.35;9.05;;;;;;;;;;5012745;28;20053;-71
2023/04/21 05:59:59;;;;;;;19.73;8.27;;;;;;;;;;5015852;28;20061;-72
2023/04/21 06:02:26;;;;;;;19.08;9.73;;;;;;;;;;5007915;28;20056;-72
2023/04/21 06:04:53;;;;;;;18.52;9.20;;;;;;;;;;5015080;28;20044;-73
2023/04/21 06:07:20;;;;;;;19.35;9.05;;;;;;;;;;5005552;28;20136;-72
2023/04/21 06:09:49;;;;;;;19.35;9.73;;;;;;;;;;5016588;28;20048;-73
2023/04/21 06:12:19;;;;;;;19.67;9.93;;;;;;;;;;5011061;28;20061;-73
2023/04/21 06:14:47;;;;;;;23.45;9.73;;;;;;;;;;5011175;28;20051;-73
2023/04/21 06:17:16;;;;;;;20.02;9.32;;;;;;;;;;5020280;28;20064;-73
2023/04/21 06:19:51;;;;;;;21.08;9.90;;;;;;;;;;5001240;28;20063;-72
2023/04/21 06:22:19;;;;;;;20.95;10.02;;;;;;;;;;5017865;28;20108;-72
2023/04/21 06:24:45;;;;;;;22.40;9.90;;;;;;;;;;5035390;28;20059;-73
2023/04/21 06:27:12;;;;;;;18.88;10.05;;;;;;;;;;5016034;28;20052;-73
2023/04/21 06:29:39;;;;;;;20.50;9.85;;;;;;;;;;5020960;28;20143;-74
2023/04/21 06:32:08;;;;;;;17.27;8.85;;;;;;;;;;5016147;28;20060;-72
2023/04/21 06:34:35;;;;;;;18.75;9.73;;;;;;;;;;5005827;28;20061;-73
2023/04/21 06:37:09;;;;;;;20.55;9.93;;;;;;;;;;5007401;28;20067;-73
2023/04/21 06:39:36;;;;;;;19.85;9.75;;;;;;;;;;5018967;28;20049;-71
2023/04/21 06:42:05;;;;;;;20.52;9.65;;;;;;;;;;5017933;28;20068;-72
2023/04/21 06:44:32;;;;;;;21.25;10.05;;;;;;;;;;4998565;28;20045;-72
2023/04/21 06:47:01;;;;;;;20.15;9.80;;;;;;;;;;5021198;28;20064;-73
2023/04/21 06:49:30;;;;;;;21.98;10.20;;;;;;;;;;5015392;28;20136;-73
2023/04/21 06:51:56;;;;;;;19.92;10.40;;;;;;;;;;5018494;28;20061;-72
2023/04/21 06:54:25;;;;;;;20.92;10.45;;;;;;;;;;5005863;28;20064;-72
2023/04/21 06:56:51;;;;;;;19.88;10.38;;;;;;;;;;5021294;28;20060;-73
2023/04/21 06:59:21;;;;;;;20.20;10.18;;;;;;;;;;5014447;28;20068;-72
2023/04/21 07:01:51;;;;;;;23.52;10.38;;;;;;;;;;5016831;28;20144;-73
2023/04/21 07:04:18;;;;;;;21.70;10.23;;;;;;;;;;4998142;28;20053;-72
2023/04/21 07:06:48;;;;;;;20.48;9.63;;;;;;;;;;5014164;28;20052;-72
2023/04/21 07:09:15;;;;;;;19.52;9.80;;;;;;;;;;5014353;28;20072;-72
2023/04/21 07:11:42;;;;;;;22.80;10.18;;;;;;;;;;5018531;28;20118;-73
2023/04/21 07:14:09;;;;;;;22.73;9.95;;;;;;;;;;5011912;28;20049;-72
2023/04/21 07:16:38;;;;;;;19.95;9.43;;;;;;;;;;5000367;28;20136;-73
2023/04/21 07:19:04;;;;;;;22.95;10.60;;;;;;;;;;4994947;28;20063;-72
2023/04/21 07:21:34;;;;;;;19.63;9.77;;;;;;;;;;5018370;28;20063;-73
2023/04/21 07:24:09;;;;;;;22.00;10.90;;;;;;;;;;5007492;28;20152;-73
2023/04/21 07:26:40;;;;;;;23.00;10.82;;;;;;;;;;5018007;28;20065;-72
2023/04/21 07:29:07;;;;;;;25.77;12.00;;;;;;;;;;5004174;28;20049;-72
2023/04/21 07:31:34;;;;;;;24.58;11.60;;;;;;;;;;5019833;28;20057;-72
2023/04/21 07:34:01;;;;;;;24.95;11.07;;;;;;;;;;5016068;28;20053;-73
2023/04/21 07:36:28;;;;;;;21.63;10.95;;;;;;;;;;5009814;28;20057;-72
2023/04/21 07:38:54;;;;;;;22.73;10.63;;;;;;;;;;5017380;28;20060;-72
2023/04/21 07:41:23;;;;;;;24.05;11.35;;;;;;;;;;5014679;28;20052;-71
2023/04/21 07:43:51;;;;;;;25.77;11.82;;;;;;;;;;5019435;28;20053;-71
2023/04/21 07:46:20;;;;;;;22.73;11.15;;;;;;;;;;5012462;28;20048;-74
2023/04/21 07:48:50;;;;;;;23.75;11.27;;;;;;;;;;5009443;28;20110;-76
2023/04/21 07:51:18;;;;;;;24.52;11.57;;;;;;;;;;5016043;28;20127;-71
2023/04/21 07:53:45;;;;;;;;;;;;;;;;;;5002064;28;20052;-73
2023/04/21 07:56:12;;;;;;;22.92;10.25;;;;;;;;;;4978965;28;19925;-72
2023/04/21 07:58:46;;;;;;;24.52;11.45;;;;;;;;;;5001347;28;20291;-71
2023/04/21 08:01:16;;;;;;;24.77;11.45;;;;;;;;;;5005097;28;20053;-72
2023/04/21 08:03:46;;;;;;;24.73;11.98;;;;;;;;;;5007626;28;20049;-73
2023/04/21 08:06:15;;;;;;;23.23;11.48;;;;;;;;;;4999841;28;20046;-72
2023/04/21 08:08:42;;;;;;;25.55;11.98;;;;;;;;;;5010337;28;20060;-72
2023/04/21 08:11:13;;;;;;;26.45;12.75;;;;;;;;;;5000830;28;20101;-72
2023/04/21 08:13:39;;;;;;;24.75;11.45;;;;;;;;;;5018033;28;20053;-74
2023/04/21 08:16:13;;;;;;;30.48;12.30;;;;;;;;;;4999329;28;20049;-75
2023/04/21 08:18:40;;;;;;;23.85;11.80;;;;;;;;;;5012297;28;20060;-74
2023/04/21 08:21:12;;;;;;;27.13;12.25;;;;;;;;;;5010509;28;20096;-74
2023/04/21 08:23:39;;;;;;;24.52;12.00;;;;;;;;;;5014774;28;20049;-75
2023/04/21 08:26:07;;;;;;;28.20;12.77;;;;;;;;;;5015103;28;20054;-72
2023/04/21 08:28:33;;;;;;;24.90;12.20;;;;;;;;;;4999457;28;20053;-72
2023/04/21 08:31:01;;;;;;;26.35;13.27;;;;;;;;;;5017647;28;20057;-74
2023/04/21 08:33:36;;;;;;;26.08;13.57;;;;;;;;;;5013884;28;20057;-74
2023/04/21 08:36:05;;;;;;;27.05;12.55;;;;;;;;;;5011959;28;20111;-72
2023/04/21 08:38:40;;;;;;;27.80;13.73;;;;;;;;;;5005109;28;20053;-72
2023/04/21 08:41:08;;;;;;;26.70;12.75;;;;;;;;;;5014556;28;20056;-72
2023/04/21 08:43:35;;;;;;;29.45;13.63;;;;;;;;;;5009080;28;20056;-72
2023/04/21 08:46:02;;;;;;;26.45;13.20;;;;;;;;;;4967653;28;20051;-72
2023/04/21 08:48:35;;;;;;;29.92;14.02;;;;;;;;;;4996108;28;20068;-72
2023/04/21 08:51:04;;;;;;;26.52;13.68;;;;;;;;;;5005428;28;20219;-72
2023/04/21 08:53:32;;;;;;;29.38;13.65;;;;;;;;;;5004589;28;20052;-72
2023/04/21 08:55:59;;;;;;;26.65;13.70;;;;;;;;;;4995425;28;20095;-71
2023/04/21 08:58:26;;;;;;;25.17;12.77;;;;;;;;;;5008135;28;20053;-72
2023/04/21 09:01:04;;;;;;;25.85;13.57;;;;;;;;;;5003660;28;20049;-71
2023/04/21 09:03:33;;;;;;;28.80;13.25;;;;;;;;;;5002509;28;20053;-74
2023/04/21 09:06:01;;;;;;;27.35;13.25;;;;;;;;;;4979132;28;20045;-72
2023/04/21 09:08:31;;;;;;;28.40;13.63;;;;;;;;;;5013007;28;20072;-72
2023/04/21 09:10:58;;;;;;;29.20;13.63;;;;;;;;;;5018049;28;20129;-72
2023/04/21 09:13:29;;;;;;;27.52;13.70;;;;;;;;;;5014794;28;20062;-71
2023/04/21 09:15:58;;;;;;;26.70;13.25;;;;;;;;;;5012664;28;20231;-73
2023/04/21 09:18:25;;;;;;;24.98;13.02;;;;;;;;;;5006699;28;20077;-72
2023/04/21 09:21:05;;;;;;;28.75;13.07;;;;;;;;;;5021236;28;20049;-72
2023/04/21 09:23:41;;;;;;;23.30;12.32;;;;;;;;;;5014253;28;20144;-75
2023/04/21 09:26:08;;;;;;;24.45;12.68;;;;;;;;;;5012561;28;20065;-74
2023/04/21 09:28:41;;;;;;;27.55;12.98;;;;;;;;;;5009472;28;20096;-72
2023/04/21 09:31:14;;;;;;;23.88;12.65;;;;;;;;;;5006934;28;20077;-73
2023/04/21 09:33:44;;;;;;;24.73;12.90;;;;;;;;;;5016283;28;20192;-73
2023/04/21 09:36:26;;;;;;;27.25;13.32;;;;;;;;;;5010060;28;20057;-75
2023/04/21 09:44:24;;;;;;;26.95;13.07;;;;;;;;;;4997665;28;20053;-73
2023/04/21 09:46:55;;;;;;;26.15;12.85;;;;;;;;;;5020605;28;20045;-73
2023/04/21 09:49:25;;;;;;;27.83;13.13;;;;;;;;;;5009848;28;20065;-73
2023/04/21 09:51:53;;;;;;;25.65;12.98;;;;;;;;;;5015890;28;20061;-73
2023/04/21 09:54:26;;;;;;;25.70;12.65;;;;;;;;;;5009981;28;20049;-73
2023/04/21 09:57:00;;;;;;;25.50;12.68;;;;;;;;;;5020198;28;20057;-73
2023/04/21 09:59:30;;;;;;;29.08;13.05;;;;;;;;;;5017123;28;20048;-73
2023/04/21 10:02:03;;;;;;;21.60;12.25;;;;;;;;;;5007483;28;20072;-73
2023/04/21 10:04:31;;;;;;;25.42;13.00;;;;;;;;;;5002215;28;20053;-73
2023/04/21 10:07:00;;;;;;;29.17;13.55;;;;;;;;;;5011005;28;20078;-73
2023/04/21 10:09:33;;;;;;;23.30;12.60;;;;;;;;;;5004616;28;20053;-73
2023/04/21 10:12:05;;;;;;;28.85;13.88;;;;;;;;;;5015428;28;20051;-73
2023/04/21 10:14:35;;;;;;;24.55;12.48;;;;;;;;;;4975468;28;20057;-73
2023/04/21 10:17:06;;;;;;;24.42;12.48;;;;;;;;;;4982563;28;20195;-72
2023/04/21 10:19:48;;;;;;;25.13;13.23;;;;;;;;;;5017648;28;20064;-73
2023/04/21 10:22:26;;;;;;;25.13;13.38;;;;;;;;;;5014005;28;20065;-73
2023/04/21 10:24:57;;;;;;;25.75;13.20;;;;;;;;;;5004525;28;20115;-73
2023/04/21 10:27:31;;;;;;;24.70;13.25;;;;;;;;;;5015500;28;20077;-74
2023/04/21 10:29:58;;;;;;;27.63;13.05;;;;;;;;;;5018617;28;20061;-73
2023/04/21 10:32:31;;;;;;;26.80;13.30;;;;;;;;;;5007939;28;20124;-73
2023/04/21 10:35:06;;;;;;;23.92;12.43;;;;;;;;;;4979282;28;20054;-73
2023/04/21 10:37:39;;;;;;;25.65;12.45;;;;;;;;;;4976921;28;20148;-73
2023/04/21 10:40:24;;;;;;;23.83;12.57;;;;;;;;;;4989012;28;20112;-73
2023/04/21 10:42:51;;;;;;;28.88;12.90;;;;;;;;;;4985843;28;20058;-72
2023/04/21 10:45:17;;;;;;;26.45;13.93;;;;;;;;;;5004458;28;20140;-73
2023/04/21 10:47:50;;;;;;;28.35;13.82;;;;;;;;;;4999632;28;20057;-73
2023/04/21 10:50:22;;;;;;;26.55;13.02;;;;;;;;;;4992051;28;20057;-73
2023/04/21 10:52:54;;;;;;;30.30;12.88;;;;;;;;;;4994224;28;20120;-72
2023/04/21 10:55:22;;;;;;;23.67;13.02;;;;;;;;;;4975257;28;20046;-74
2023/04/21 10:57:49;;;;;;;31.60;13.48;;;;;;;;;;4982292;28;20046;-75
2023/04/21 11:00:17;;;;;;;25.02;12.73;;;;;;;;;;4972155;28;20065;-72
2023/04/21 11:02:55;;;;;;;24.55;13.05;;;;;;;;;;4964997;28;20057;-72
2023/04/21 11:05:27;;;;;;;25.33;12.97;;;;;;;;;;4991135;28;20060;-73
2023/04/21 11:08:05;;;;;;;25.13;13.52;;;;;;;;;;4979472;28;20077;-73
2023/04/21 11:10:41;;;;;;;26.20;13.18;;;;;;;;;;4991689;28;20073;-72
2023/04/21 11:13:11;;;;;;;28.17;13.93;;;;;;;;;;4981893;28;20064;-73
2023/04/21 11:15:40;;;;;;;25.00;13.18;;;;;;;;;;5003841;28;20076;-73
2023/04/21 11:18:07;;;;;;;25.45;13.15;;;;;;;;;;4997755;28;20121;-73
2023/04/21 11:20:34;;;;;;;27.55;13.85;;;;;;;;;;5013696;28;20115;-73
2023/04/21 11:23:03;;;;;;;27.08;13.43;;;;;;;;;;5006054;28;20069;-73
2023/04/21 11:25:34;;;;;;;26.30;13.23;;;;;;;;;;5008415;28;20242;-72
2023/04/21 11:28:04;;;;;;;27.58;13.60;;;;;;;;;;5001440;28;20053;-73
2023/04/21 11:30:53;;;;;;;28.05;13.30;;;;;;;;;;4999565;28;20052;-73
2023/04/21 11:33:25;;;;;;;24.02;13.05;;;;;;;;;;4982101;28;20053;-72
2023/04/21 11:35:57;;;;;;;26.17;13.52;;;;;;;;;;4975585;28;20050;-73
2023/04/21 11:38:31;;;;;;;22.30;12.93;;;;;;;;;;4975339;28;20132;-72
2023/04/21 11:41:00;;;;;;;25.60;12.40;;;;;;;;;;4994604;28;20103;-73
2023/04/21 11:43:27;;;;;;;24.70;13.10;;;;;;;;;;4989417;28;20058;-73
2023/04/21 11:49:00;;;;;;;26.40;12.82;;;;;;;;;;4977642;28;20172;-74
2023/04/21 11:51:28;;;;;;;25.67;11.80;;;;;;;;;;4969905;28;20050;-74
2023/04/21 11:53:55;;;;;;;25.25;13.05;;;;;;;;;;4977587;28;20046;-74
2023/04/21 11:56:28;;;;;;;22.65;12.20;;;;;;;;;;4980786;28;20053;-74
2023/04/21 11:59:06;;;;;;;25.38;12.40;;;;;;;;;;5008406;28;20111;-74
2023/04/21 12:01:33;;;;;;;23.27;11.20;;;;;;;;;;5004097;28;20053;-73
2023/04/21 12:04:02;;;;;;;21.83;11.43;;;;;;;;;;5001505;28;20299;-73
2023/04/21 12:06:29;;;;;;;27.30;12.38;;;;;;;;;;4977640;28;20045;-73
2023/04/21 12:09:00;;;;;;;23.77;11.65;;;;;;;;;;5003581;28;20274;-72
2023/04/21 12:11:29;;;;;;;20.80;11.48;;;;;;;;;;5001876;28;20057;-73
2023/04/21 12:13:59;;;;;;;22.38;11.73;;;;;;;;;;5006045;28;20140;-74
2023/04/21 12:16:29;;;;;;;22.65;12.20;;;;;;;;;;4930057;28;20069;-73
2023/04/21 12:18:58;;;;;;;24.42;12.30;;;;;;;;;;5015310;28;20084;-74
2023/04/21 12:21:27;;;;;;;22.98;12.27;;;;;;;;;;4997128;28;20120;-74
2023/04/21 12:23:53;;;;;;;;;;;;;;;;;;5016300;28;20090;-72
2023/04/21 12:26:32;;;;;;;20.25;10.38;;;;;;;;;;5002176;28;19924;-73
2023/04/21 12:29:04;;;;;;;20.45;11.20;;;;;;;;;;5008705;28;20140;-74
2023/04/21 12:31:31;;;;;;;20.00;11.20;;;;;;;;;;5014472;28;20076;-73
2023/04/21 12:33:58;;;;;;;25.17;11.73;;;;;;;;;;5018539;28;20106;-73
2023/04/21 12:36:31;;;;;;;22.08;11.57;;;;;;;;;;4994610;28;20049;-73
2023/04/21 12:39:01;;;;;;;28.40;11.70;;;;;;;;;;4997204;28;20057;-74
2023/04/21 12:41:27;;;;;;;22.85;11.13;;;;;;;;;;4996303;28;20067;-73
2023/04/21 12:43:56;;;;;;;20.88;10.88;;;;;;;;;;5012355;28;20056;-73
2023/04/21 12:46:27;;;;;;;24.88;12.55;;;;;;;;;;4995134;28;20137;-74
2023/04/21 12:49:00;;;;;;;21.77;11.52;;;;;;;;;;5017957;28;20053;-73
2023/04/21 12:51:27;;;;;;;23.35;11.75;;;;;;;;;;5017930;28;20085;-74
2023/04/21 12:53:55;;;;;;;22.25;11.40;;;;;;;;;;5012239;28;20113;-73
2023/04/21 12:56:33;;;;;;;23.40;11.70;;;;;;;;;;5010308;28;20067;-73
2023/04/21 12:59:04;;;;;;;20.85;11.35;;;;;;;;;;4998956;28;20057;-73
2023/04/21 13:01:31;;;;;;;20.35;11.45;;;;;;;;;;5003968;28;20057;-74
2023/04/21 13:04:07;;;;;;;20.02;11.32;;;;;;;;;;4997347;28;20083;-73
2023/04/21 13:06:41;;;;;;;25.15;11.93;;;;;;;;;;4995395;28;20049;-74
2023/04/21 13:09:08;;;;;;;22.80;11.45;;;;;;;;;;4974595;28;20132;-73
2023/04/21 13:11:36;;;;;;;24.70;11.48;;;;;;;;;;4977175;28;20201;-73
2023/04/21 13:14:05;;;;;;;25.10;11.65;;;;;;;;;;4962840;28;20160;-74
2023/04/21 13:16:32;;;;;;;21.42;10.95;;;;;;;;;;4969211;28;20046;-72
2023/04/21 13:19:01;;;;;;;23.75;11.20;;;;;;;;;;5000668;28;20148;-73
2023/04/21 13:21:36;;;;;;;23.83;12.15;;;;;;;;;;5005010;28;20143;-74
2023/04/21 13:24:03;;;;;;;23.55;11.63;;;;;;;;;;5001109;28;20080;-74
2023/04/21 13:26:31;;;;;;;21.95;11.80;;;;;;;;;;5008731;28;20253;-74
2023/04/21 13:29:00;;;;;;;23.17;12.30;;;;;;;;;;4988712;28;20189;-74
2023/04/21 13:31:34;;;;;;;22.58;11.98;;;;;;;;;;4993638;28;20085;-73
2023/04/21 13:34:02;;;;;;;21.33;11.48;;;;;;;;;;4997243;28;20057;-75
2023/04/21 13:36:32;;;;;;;21.95;11.73;;;;;;;;;;4988831;28;20139;-74
2023/04/21 13:39:02;;;;;;;22.80;12.68;;;;;;;;;;5000746;28;20133;-74
2023/04/21 13:41:29;;;;;;;21.30;12.32;;;;;;;;;;5010561;28;20068;-75
2023/04/21 13:43:56;;;;;;;26.73;12.77;;;;;;;;;;5006244;28;20049;-75
2023/04/21 13:46:25;;;;;;;30.02;13.13;;;;;;;;;;4983131;28;20057;-74
2023/04/21 13:48:55;;;;;;;25.52;12.77;;;;;;;;;;5013561;28;20057;-73
2023/04/21 13:51:28;;;;;;;25.85;12.70;;;;;;;;;;5007963;28;20049;-74
2023/04/21 13:53:56;;;;;;;26.52;13.13;;;;;;;;;;5004304;28;20076;-75
2023/04/21 13:56:23;;;;;;;23.55;12.65;;;;;;;;;;4972750;28;20103;-75
2023/04/21 13:58:51;;;;;;;24.73;12.60;;;;;;;;;;5014868;28;20148;-74
2023/04/21 14:01:21;;;;;;;23.00;11.93;;;;;;;;;;5015032;28;20168;-74
2023/04/21 14:03:47;;;;;;;21.23;11.40;;;;;;;;;;5009891;28;20115;-73
2023/04/21 14:06:18;;;;;;;21.38;11.50;;;;;;;;;;4984006;28;20049;-75
2023/04/21 14:08:45;;;;;;;25.45;12.70;;;;;;;;;;5011954;28;20140;-73
2023/04/21 14:11:12;;;;;;;24.60;12.00;;;;;;;;;;5013085;28;20057;-72
2023/04/21 14:13:39;;;;;;;22.98;11.70;;;;;;;;;;5016952;28;20053;-72
2023/04/21 14:16:13;;;;;;;21.77;11.70;;;;;;;;;;5003917;28;20052;-74
2023/04/21 14:18:44;;;;;;;22.38;11.07;;;;;;;;;;5004411;28;20053;-73
2023/04/21 14:21:11;;;;;;;24.13;11.13;;;;;;;;;;5014241;28;20057;-73
2023/04/21 14:23:41;;;;;;;24.85;10.95;;;;;;;;;;5018259;28;20084;-73
2023/04/21 14:26:07;;;;;;;24.65;11.38;;;;;;;;;;5002368;28;20088;-73
2023/04/21 14:28:34;;;;;;;21.77;11.35;;;;;;;;;;5011121;28;20139;-74
2023/04/21 14:31:05;;;;;;;21.63;10.40;;;;;;;;;;5009460;28;20118;-73
2023/04/21 14:33:41;;;;;;;24.83;10.57;;;;;;;;;;5014523;28;20057;-72
2023/04/21 14:36:14;;;;;;;19.98;10.52;;;;;;;;;;5001221;28;20101;-72
2023/04/21 14:38:44;;;;;;;20.98;10.30;;;;;;;;;;5001191;28;20041;-73
2023/04/21 14:41:11;;;;;;;21.08;11.07;;;;;;;;;;5011414;28;20069;-73
2023/04/21 14:43:38;;;;;;;23.85;10.32;;;;;;;;;;5015339;28;20144;-73